Time;durP1;ratioP1;P1;durP2;ratioP2;P2;SDS_P1;SDS_P2;PMS_P1;PMS_P2;Temp;Humidity;BMP_temperature;BMP_pressure;BME280_temperature;BME280_humidity;BME280_pressure;Samples;Min_cycle;Max_cycle;Signal;HPM_P1;HPM_P2
2023/11/07 00:00:10;;;;;;;2.10;1.30;;;;;;;8.52;73.34;96306.09;108586;1275;22526;-72
2023/11/07 00:03:01;;;;;;;3.40;1.40;;;;;;;8.51;73.27;96307.06;108609;1275;22563;-72
2023/11/07 00:05:33;;;;;;;1.60;1.10;;;;;;;8.52;73.38;96308.32;108564;1275;22515;-72
2023/11/07 00:08:04;;;;;;;3.30;1.20;;;;;;;8.58;73.49;96309.70;108593;1275;22555;-73
2023/11/07 00:10:37;;;;;;;2.80;1.20;;;;;;;8.59;73.39;96308.08;108589;1271;24302;-72
2023/11/07 00:13:08;;;;;;;2.60;1.50;;;;;;;8.58;73.47;96312.41;108593;1275;23463;-72
2023/11/07 00:15:39;;;;;;;3.30;1.10;;;;;;;8.59;73.42;96311.09;108591;1275;22660;-72
2023/11/07 00:18:10;;;;;;;3.10;1.20;;;;;;;8.60;73.61;96318.33;108601;1275;24146;-72
2023/11/07 00:20:41;;;;;;;2.50;1.20;;;;;;;8.65;73.59;96317.34;108566;1272;22517;-72
2023/11/07 00:23:13;;;;;;;2.80;1.30;;;;;;;8.70;73.75;96319.46;108549;1268;22554;-72
2023/11/07 00:25:44;;;;;;;2.80;0.50;;;;;;;8.75;73.76;96313.59;108616;1275;25332;-73
2023/11/07 00:28:15;;;;;;;1.30;0.70;;;;;;;8.85;73.99;96320.20;108608;1275;22552;-72
2023/11/07 00:30:46;;;;;;;1.70;1.00;;;;;;;8.94;73.94;96318.23;108544;1275;22524;-72
2023/11/07 00:33:16;;;;;;;2.80;1.00;;;;;;;8.95;73.74;96319.86;108609;1274;25371;-72
2023/11/07 00:35:48;;;;;;;3.00;1.40;;;;;;;8.92;73.76;96322.68;108601;1272;22634;-73
2023/11/07 00:38:19;;;;;;;6.20;1.10;;;;;;;8.89;73.77;96325.83;108583;1275;25450;-73
2023/11/07 00:40:49;;;;;;;1.30;0.80;;;;;;;8.89;73.96;96322.66;108576;1274;22538;-72
2023/11/07 00:43:23;;;;;;;1.70;1.10;;;;;;;8.89;74.07;96331.01;108609;1275;25476;-72
2023/11/07 00:45:54;;;;;;;11.20;1.40;;;;;;;8.88;74.06;96337.15;108578;1275;23077;-72
2023/11/07 00:48:25;;;;;;;1.60;0.90;;;;;;;8.88;74.18;96335.73;108593;1275;22550;-72
2023/11/07 00:50:56;;;;;;;2.00;0.90;;;;;;;8.89;74.26;96340.15;108598;1274;22521;-72
2023/11/07 00:53:27;;;;;;;2.50;1.00;;;;;;;8.85;74.12;96343.91;108608;1273;24208;-72
2023/11/07 00:55:58;;;;;;;3.10;1.20;;;;;;;8.86;74.28;96342.59;108615;1275;26426;-72
2023/11/07 00:58:29;;;;;;;2.40;1.00;;;;;;;8.90;74.36;96342.27;108580;1275;22524;-72
2023/11/07 01:01:00;;;;;;;2.80;1.60;;;;;;;8.91;74.28;96343.05;108571;1275;22536;-72
2023/11/07 01:03:31;;;;;;;2.80;1.10;;;;;;;8.90;74.23;96338.09;108578;1267;22659;-72
2023/11/07 01:06:04;;;;;;;5.30;1.20;;;;;;;8.90;74.32;96345.70;108616;1275;25233;-73
2023/11/07 01:08:35;;;;;;;4.30;1.20;;;;;;;8.93;74.45;96342.98;108593;1269;24212;-72
2023/11/07 01:11:06;;;;;;;3.50;1.20;;;;;;;8.94;74.47;96346.73;108601;1253;22572;-72
2023/11/07 01:13:38;;;;;;;3.30;1.20;;;;;;;8.94;74.42;96342.34;108616;1275;23863;-72
2023/11/07 01:16:10;;;;;;;3.20;0.80;;;;;;;8.97;74.54;96344.11;108586;1275;22547;-73
2023/11/07 01:18:41;;;;;;;4.00;1.60;;;;;;;8.97;74.44;96348.66;108593;1275;22556;-72
2023/11/07 01:21:12;;;;;;;1.60;0.80;;;;;;;8.95;74.42;96345.34;108563;1267;25341;-72
2023/11/07 01:23:43;;;;;;;4.20;1.10;;;;;;;8.91;74.31;96345.16;108589;1272;22560;-73
2023/11/07 01:26:14;;;;;;;3.60;1.00;;;;;;;8.85;74.34;96348.09;108611;1275;22521;-72
2023/11/07 01:28:45;;;;;;;2.00;0.90;;;;;;;8.81;74.43;96342.35;108608;1272;22542;-72
2023/11/07 01:31:16;;;;;;;3.90;1.30;;;;;;;8.76;74.48;96340.13;108568;1275;23183;-72
2023/11/07 01:33:47;;;;;;;1.60;0.80;;;;;;;8.73;74.61;96340.08;108613;1275;25422;-72
2023/11/07 01:36:18;;;;;;;5.10;1.00;;;;;;;8.67;74.58;96331.65;108578;1275;24216;-72
2023/11/07 01:38:48;;;;;;;2.90;1.10;;;;;;;8.63;74.57;96339.98;108594;1275;24212;-72
2023/11/07 01:41:19;;;;;;;3.40;0.90;;;;;;;8.63;74.86;96337.13;108584;1273;22567;-72
2023/11/07 01:43:50;;;;;;;3.40;0.90;;;;;;;8.65;74.90;96342.13;108600;1275;22524;-73
2023/11/07 01:46:21;;;;;;;2.20;0.60;;;;;;;8.64;74.86;96338.17;108545;1275;22522;-73
2023/11/07 01:48:53;;;;;;;1.90;0.80;;;;;;;8.69;75.06;96338.98;108566;1272;22521;-73
2023/11/07 01:51:24;;;;;;;1.30;0.80;;;;;;;8.73;75.16;96337.17;108583;1275;22525;-72
2023/11/07 01:53:55;;;;;;;1.70;0.80;;;;;;;8.79;75.26;96341.37;108627;1275;22525;-72
2023/11/07 01:56:29;;;;;;;2.90;0.80;;;;;;;8.87;75.42;96337.36;108577;1272;22539;-72
2023/11/07 01:59:01;;;;;;;2.40;0.90;;;;;;;8.93;75.45;96339.54;108620;1275;22539;-72
2023/11/07 02:01:35;;;;;;;3.20;1.00;;;;;;;8.99;75.44;96339.49;108572;1275;22572;-72
2023/11/07 02:04:06;;;;;;;4.40;1.00;;;;;;;9.00;75.37;96338.48;108586;1270;22525;-72
2023/11/07 02:06:38;;;;;;;3.20;0.70;;;;;;;8.97;75.38;96336.61;108589;1275;22537;-72
2023/11/07 02:09:09;;;;;;;2.60;0.90;;;;;;;9.01;75.50;96339.96;108603;1275;22642;-73
2023/11/07 02:11:40;;;;;;;2.90;1.60;;;;;;;9.05;75.77;96342.60;108591;1275;22518;-72
2023/11/07 02:14:26;;;;;;;2.20;0.60;;;;;;;9.13;75.80;96345.98;108573;1274;23563;-72
2023/11/07 02:16:56;;;;;;;1.90;0.80;;;;;;;9.17;75.67;96350.66;108586;1275;22575;-72
2023/11/07 02:19:28;;;;;;;3.30;0.80;;;;;;;9.24;75.75;96353.88;108603;1272;22529;-72
2023/11/07 02:22:01;;;;;;;4.40;1.30;;;;;;;9.35;75.77;96354.86;108585;1272;22622;-72
2023/11/07 02:24:32;;;;;;;1.50;0.80;;;;;;;9.42;75.63;96354.76;108615;1270;25291;-72
2023/11/07 02:27:04;;;;;;;2.50;0.80;;;;;;;9.45;75.49;96359.50;108546;1271;22945;-72
2023/11/07 02:29:35;;;;;;;3.80;1.00;;;;;;;9.51;75.44;96352.45;108616;1275;24218;-72
2023/11/07 02:32:06;;;;;;;1.40;0.60;;;;;;;9.57;75.26;96354.69;108529;1269;26757;-73
2023/11/07 02:34:37;;;;;;;2.10;0.70;;;;;;;9.52;75.19;96354.56;108602;1271;22531;-72
2023/11/07 02:37:08;;;;;;;4.70;1.00;;;;;;;9.49;75.18;96354.44;108566;1269;22637;-72
2023/11/07 02:39:39;;;;;;;6.30;1.10;;;;;;;9.50;75.16;96356.70;108580;1269;22532;-72
2023/11/07 02:42:10;;;;;;;1.70;0.60;;;;;;;9.48;75.14;96356.73;108590;1275;22540;-72
2023/11/07 02:44:41;;;;;;;2.40;0.60;;;;;;;9.43;75.07;96361.63;108582;1275;22608;-73
2023/11/07 02:47:12;;;;;;;2.10;0.90;;;;;;;9.37;75.08;96359.51;108562;1270;22643;-73
2023/11/07 02:49:43;;;;;;;2.90;1.00;;;;;;;9.28;75.07;96357.98;108588;1269;24364;-72
2023/11/07 02:52:14;;;;;;;2.00;0.80;;;;;;;9.19;75.16;96356.04;108575;1269;22520;-72
2023/11/07 02:54:45;;;;;;;2.30;0.80;;;;;;;9.10;75.30;96356.41;108611;1275;22530;-72
2023/11/07 02:57:16;;;;;;;2.90;0.90;;;;;;;9.02;75.40;96357.09;108598;1275;22511;-72
2023/11/07 02:59:47;;;;;;;1.70;0.80;;;;;;;8.98;75.68;96361.66;108623;1273;22535;-72
2023/11/07 03:02:19;;;;;;;4.00;1.20;;;;;;;8.97;75.90;96357.76;108563;1272;22539;-72
2023/11/07 03:04:51;;;;;;;1.10;1.00;;;;;;;9.01;76.13;96358.68;108597;1264;22550;-72
2023/11/07 03:07:23;;;;;;;1.50;0.80;;;;;;;9.18;76.59;96355.14;108556;1275;22565;-72
2023/11/07 03:09:54;;;;;;;0.80;0.60;;;;;;;9.34;76.53;96353.81;108604;1275;22525;-72
2023/11/07 03:12:25;;;;;;;2.70;1.00;;;;;;;9.45;76.42;96354.42;108567;1272;23467;-72
2023/11/07 03:14:56;;;;;;;3.00;1.20;;;;;;;9.55;76.31;96352.85;108646;1273;22533;-72
2023/11/07 03:17:27;;;;;;;1.60;0.80;;;;;;;9.68;75.98;96359.84;108608;1274;22555;-72
2023/11/07 03:19:58;;;;;;;1.00;0.60;;;;;;;9.69;75.76;96361.36;108634;1275;22521;-72
2023/11/07 03:22:29;;;;;;;2.30;0.70;;;;;;;9.71;75.65;96361.25;108546;1275;22550;-73
2023/11/07 03:25:00;;;;;;;3.00;1.60;;;;;;;9.66;75.55;96362.98;108584;1275;25416;-73
2023/11/07 03:27:31;;;;;;;3.10;1.20;;;;;;;9.64;75.43;96365.05;108559;1275;22533;-72
2023/11/07 03:30:01;;;;;;;2.60;0.80;;;;;;;9.62;75.44;96367.58;108589;1275;22524;-73
2023/11/07 03:32:35;;;;;;;2.10;0.70;;;;;;;9.61;75.57;96372.39;108510;1267;22545;-72
2023/11/07 03:35:06;;;;;;;3.10;1.10;;;;;;;9.66;75.62;96371.77;108590;1275;24324;-72
2023/11/07 03:37:39;;;;;;;3.80;0.80;;;;;;;9.65;75.36;96375.73;108590;1275;22536;-72
2023/11/07 03:40:12;;;;;;;2.80;1.00;;;;;;;9.58;75.35;96372.85;108645;1272;22528;-73
2023/11/07 03:42:43;;;;;;;2.40;0.70;;;;;;;9.54;75.56;96369.89;108649;1275;25369;-72
2023/11/07 03:45:14;;;;;;;1.90;0.70;;;;;;;9.58;75.76;96371.73;108597;1275;22529;-72
2023/11/07 03:47:44;;;;;;;2.40;0.90;;;;;;;9.63;75.68;96374.65;108594;1275;22564;-72
2023/11/07 03:50:15;;;;;;;1.60;0.90;;;;;;;9.63;75.55;96373.33;108607;1275;22521;-72
2023/11/07 03:52:47;;;;;;;3.50;0.90;;;;;;;9.61;75.52;96375.20;108570;1275;22524;-72
2023/11/07 03:55:18;;;;;;;2.30;0.80;;;;;;;9.58;75.46;96373.48;108572;1266;22591;-72
2023/11/07 03:57:49;;;;;;;2.40;0.70;;;;;;;9.55;75.62;96372.80;108607;1270;22535;-73
2023/11/07 04:00:20;;;;;;;3.90;0.90;;;;;;;9.58;75.57;96373.44;108557;1275;22564;-72
2023/11/07 04:02:51;;;;;;;2.40;1.10;;;;;;;9.51;75.38;96375.05;108596;1273;22530;-72
2023/11/07 04:05:22;;;;;;;1.90;1.10;;;;;;;9.34;75.14;96372.39;108597;1273;22512;-73
2023/11/07 04:07:55;;;;;;;5.40;1.20;;;;;;;9.10;75.03;96372.27;108580;1272;22543;-72
2023/11/07 04:10:27;;;;;;;3.10;1.10;;;;;;;8.86;75.21;96375.52;108595;1275;25610;-72
2023/11/07 04:12:57;;;;;;;4.30;1.30;;;;;;;8.71;75.57;96372.48;108571;1275;22536;-72
2023/11/07 04:15:28;;;;;;;4.30;1.40;;;;;;;8.56;75.78;96378.10;108564;1275;22563;-72
2023/11/07 04:18:00;;;;;;;2.90;1.20;;;;;;;8.46;75.97;96381.38;108563;1272;25300;-72
2023/11/07 04:20:32;;;;;;;4.80;1.10;;;;;;;8.39;76.44;96387.89;108635;1275;22523;-72
2023/11/07 04:23:04;;;;;;;2.30;1.00;;;;;;;8.37;76.69;96386.73;108631;1275;24363;-72
2023/11/07 04:25:36;;;;;;;3.60;1.00;;;;;;;8.30;77.07;96386.24;108547;1275;22531;-72
2023/11/07 04:28:08;;;;;;;4.40;1.50;;;;;;;8.28;77.38;96382.02;108578;1272;22535;-72
2023/11/07 04:30:41;;;;;;;2.20;1.00;;;;;;;8.30;77.65;96384.66;108605;1273;25062;-73
2023/11/07 04:33:12;;;;;;;3.00;0.90;;;;;;;8.34;77.77;96395.61;108558;1275;23557;-72
2023/11/07 04:35:43;;;;;;;3.20;1.30;;;;;;;8.36;77.99;96397.04;108603;1275;22564;-72
2023/11/07 04:38:16;;;;;;;3.10;1.20;;;;;;;8.36;78.10;96397.14;108588;1275;22535;-72
2023/11/07 04:40:47;;;;;;;3.80;1.20;;;;;;;8.33;77.97;96398.56;108602;1275;23092;-73
2023/11/07 04:43:18;;;;;;;1.80;0.80;;;;;;;8.31;78.30;96399.50;108585;1275;24350;-72
2023/11/07 04:45:49;;;;;;;3.50;1.20;;;;;;;8.28;78.10;96404.09;108586;1275;22593;-73
2023/11/07 04:48:20;;;;;;;2.10;1.00;;;;;;;8.23;78.42;96399.63;108621;1275;22552;-72
2023/11/07 04:50:51;;;;;;;2.80;1.20;;;;;;;8.20;78.44;96404.81;108588;1275;22535;-73
2023/11/07 04:53:22;;;;;;;2.30;1.20;;;;;;;8.15;78.66;96403.27;108558;1275;22554;-72
2023/11/07 04:55:55;;;;;;;2.80;1.30;;;;;;;8.14;78.99;96399.16;108589;1275;22528;-72
2023/11/07 04:58:27;;;;;;;5.40;1.80;;;;;;;8.12;78.92;96401.80;108601;1270;24215;-72
2023/11/07 05:00:58;;;;;;;3.60;1.60;;;;;;;8.08;78.94;96400.19;108515;1275;22537;-72
2023/11/07 05:03:31;;;;;;;2.60;1.40;;;;;;;8.05;79.14;96406.64;108577;1267;22601;-72
2023/11/07 05:06:02;;;;;;;4.00;1.60;;;;;;;8.01;79.17;96411.06;108602;1275;24363;-73
2023/11/07 05:08:33;;;;;;;5.20;1.30;;;;;;;7.97;79.32;96409.90;108588;1275;25391;-72
2023/11/07 05:11:05;;;;;;;4.20;1.70;;;;;;;7.95;79.31;96407.81;108589;1273;22550;-72
2023/11/07 05:13:38;;;;;;;3.80;1.30;;;;;;;7.91;79.63;96404.02;108584;1267;22535;-73
2023/11/07 05:16:10;;;;;;;3.30;1.50;;;;;;;7.87;79.63;96408.65;108595;1275;22552;-72
2023/11/07 05:18:41;;;;;;;2.80;1.60;;;;;;;7.84;79.82;96406.27;108619;1267;22542;-72
2023/11/07 05:21:11;;;;;;;3.50;1.70;;;;;;;7.85;80.18;96409.60;108591;1275;26564;-72
2023/11/07 05:23:43;;;;;;;4.20;2.20;;;;;;;7.88;80.10;96416.72;108600;1275;22514;-72
2023/11/07 05:26:15;;;;;;;7.00;2.30;;;;;;;7.91;80.40;96417.73;108585;1273;24253;-72
2023/11/07 05:28:48;;;;;;;3.40;1.80;;;;;;;7.95;80.38;96414.14;108586;1275;25411;-72
2023/11/07 05:31:19;;;;;;;5.60;1.70;;;;;;;7.98;80.63;96420.20;108584;1273;24227;-72
2023/11/07 05:33:50;;;;;;;5.30;1.60;;;;;;;8.01;80.68;96421.04;108626;1275;22713;-72
2023/11/07 05:36:21;;;;;;;3.80;1.40;;;;;;;8.04;80.81;96419.37;108595;1274;24304;-72
2023/11/07 05:38:52;;;;;;;4.50;1.70;;;;;;;8.07;80.80;96423.89;108579;1267;22532;-73
2023/11/07 05:41:23;;;;;;;2.90;1.60;;;;;;;8.09;80.82;96426.64;108622;1272;22519;-72
2023/11/07 05:43:55;;;;;;;3.50;1.50;;;;;;;8.10;80.95;96430.70;108600;1275;27589;-72
2023/11/07 05:46:26;;;;;;;3.30;1.30;;;;;;;8.13;80.96;96435.60;108598;1272;22739;-72
2023/11/07 05:48:56;;;;;;;6.00;1.80;;;;;;;8.14;80.89;96435.96;108608;1275;22755;-72
2023/11/07 05:51:27;;;;;;;2.20;1.30;;;;;;;8.12;80.92;96435.81;108591;1275;22549;-72
2023/11/07 05:53:58;;;;;;;3.70;1.80;;;;;;;8.10;80.94;96435.08;108587;1271;25388;-73
2023/11/07 05:56:29;;;;;;;5.80;1.80;;;;;;;8.11;81.09;96442.58;108584;1270;22553;-73
2023/11/07 05:59:00;;;;;;;4.00;1.60;;;;;;;8.29;81.24;96444.09;108657;1267;22574;-72
2023/11/07 06:01:31;;;;;;;3.80;2.00;;;;;;;8.51;80.95;96439.73;108635;1269;22528;-73
2023/11/07 06:04:04;;;;;;;3.80;1.30;;;;;;;8.74;80.84;96444.89;108717;1273;25258;-73
2023/11/07 06:06:35;;;;;;;6.00;1.60;;;;;;;8.78;80.38;96447.99;108708;1275;25334;-72
2023/11/07 06:09:06;;;;;;;4.00;1.80;;;;;;;8.70;80.18;96452.10;108699;1275;22624;-72
2023/11/07 06:11:37;;;;;;;3.50;1.70;;;;;;;8.60;80.13;96454.24;108695;1275;25416;-73
2023/11/07 06:14:08;;;;;;;2.90;1.30;;;;;;;8.51;80.18;96457.60;108681;1275;25497;-73
2023/11/07 06:16:43;;;;;;;4.00;1.50;;;;;;;8.44;80.22;96463.63;108569;1275;22533;-73
2023/11/07 06:19:14;;;;;;;6.70;2.10;;;;;;;8.39;80.35;96469.03;108570;1275;22545;-73
2023/11/07 06:21:46;;;;;;;2.50;1.70;;;;;;;8.60;80.74;96467.34;108602;1275;22532;-73
2023/11/07 06:24:17;;;;;;;4.60;2.00;;;;;;;9.15;80.66;96467.61;108609;1267;22532;-73
2023/11/07 06:26:49;;;;;;;3.30;1.70;;;;;;;9.80;80.22;96468.64;108613;1275;22536;-73
2023/11/07 06:29:21;;;;;;;5.40;1.80;;;;;;;10.47;79.53;96472.86;108536;1275;22536;-73
2023/11/07 06:31:52;;;;;;;3.40;1.80;;;;;;;11.07;78.65;96473.85;108591;1275;22741;-73
2023/11/07 06:34:25;;;;;;;4.10;1.70;;;;;;;11.62;77.73;96467.75;108634;1274;25183;-73
2023/11/07 06:36:56;;;;;;;2.50;1.00;;;;;;;12.08;76.81;96467.92;108613;1273;22741;-73
2023/11/07 06:39:27;;;;;;;3.70;1.30;;;;;;;12.40;76.33;96469.90;108614;1272;22527;-73
2023/11/07 06:41:58;;;;;;;4.50;2.20;;;;;;;12.90;75.64;96469.86;108608;1275;22543;-73
2023/11/07 06:44:30;;;;;;;4.70;1.80;;;;;;;13.34;74.49;96472.89;108581;1275;24379;-73
2023/11/07 06:47:03;;;;;;;4.50;1.60;;;;;;;13.77;73.69;96470.98;108581;1267;22563;-74
2023/11/07 06:49:34;;;;;;;3.50;1.60;;;;;;;14.11;72.83;96473.83;108564;1275;23208;-74
2023/11/07 06:52:06;;;;;;;4.80;1.70;;;;;;;14.19;71.80;96480.90;108593;1267;22526;-73
2023/11/07 06:54:37;;;;;;;4.40;1.60;;;;;;;14.41;71.24;96476.81;108596;1275;24278;-74
2023/11/07 06:57:09;;;;;;;4.30;2.00;;;;;;;14.73;70.73;96478.79;108549;1267;22531;-74
2023/11/07 06:59:41;;;;;;;4.50;1.60;;;;;;;14.96;69.93;96478.75;108600;1275;25412;-74
2023/11/07 07:02:12;;;;;;;4.30;1.70;;;;;;;14.93;69.14;96481.87;108537;1270;24213;-73
2023/11/07 07:04:43;;;;;;;4.00;1.60;;;;;;;14.16;68.28;96482.85;108598;1267;23001;-74
2023/11/07 07:07:14;;;;;;;4.00;1.10;;;;;;;13.38;68.56;96484.89;108601;1275;26009;-73
2023/11/07 07:09:45;;;;;;;3.60;1.50;;;;;;;13.11;68.56;96483.67;108598;1275;22536;-73
2023/11/07 07:12:16;;;;;;;2.90;1.40;;;;;;;13.27;68.75;96482.61;108571;1275;22754;-73
2023/11/07 07:14:48;;;;;;;2.80;1.70;;;;;;;13.71;68.26;96476.44;108624;1268;22654;-74
2023/11/07 07:17:19;;;;;;;3.40;1.90;;;;;;;14.29;68.29;96479.95;108591;1275;22529;-73
2023/11/07 07:19:50;;;;;;;5.40;1.40;;;;;;;14.78;67.21;96483.98;108618;1270;22528;-74
2023/11/07 07:22:27;;;;;;;4.80;1.70;;;;;;;15.20;66.97;96484.05;108585;1269;25268;-74
2023/11/07 07:25:05;;;;;;;2.70;1.40;;;;;;;15.79;66.27;96486.69;108592;1275;22617;-74
2023/11/07 07:27:36;;;;;;;3.90;1.60;;;;;;;16.26;65.46;96486.00;108547;1274;24361;-73
2023/11/07 07:30:10;;;;;;;4.20;1.60;;;;;;;16.62;64.62;96490.00;108614;1275;22581;-73
2023/11/07 07:32:41;;;;;;;3.20;1.40;;;;;;;16.89;63.78;96488.26;108593;1271;23717;-74
2023/11/07 07:35:15;;;;;;;3.60;1.20;;;;;;;16.87;62.57;96484.60;108589;1269;24276;-73
2023/11/07 07:37:51;;;;;;;4.00;1.50;;;;;;;16.64;61.70;96479.05;108567;1273;22539;-73
2023/11/07 07:40:25;;;;;;;4.10;1.40;;;;;;;16.15;60.59;96478.05;108602;1275;22645;-73
2023/11/07 07:42:58;;;;;;;3.70;1.50;;;;;;;15.65;59.58;96485.98;108613;1275;22466;-74
2023/11/07 07:45:29;;;;;;;3.60;1.20;;;;;;;15.43;60.85;96488.48;108613;1267;23096;-73
2023/11/07 07:48:02;;;;;;;3.60;1.40;;;;;;;15.79;60.89;96484.27;108585;1275;24356;-73
2023/11/07 07:50:33;;;;;;;3.50;1.30;;;;;;;16.06;60.76;96481.77;108575;1275;24197;-74
2023/11/07 07:53:06;;;;;;;3.00;1.40;;;;;;;16.45;60.71;96477.55;108563;1275;22520;-73
2023/11/07 07:55:42;;;;;;;6.20;1.60;;;;;;;16.80;60.01;96478.95;108602;1267;22521;-73
2023/11/07 07:58:18;;;;;;;3.90;2.20;;;;;;;17.20;59.59;96486.76;108591;1275;22520;-73
2023/11/07 08:00:52;;;;;;;5.30;1.70;;;;;;;17.39;58.95;96495.98;108569;1267;25239;-73
2023/11/07 08:03:23;;;;;;;3.70;1.80;;;;;;;17.86;59.18;96494.71;108593;1271;22535;-74
2023/11/07 08:05:58;;;;;;;5.30;2.20;;;;;;;18.16;58.54;96498.98;108584;1270;22546;-73
2023/11/07 08:08:29;;;;;;;4.70;1.50;;;;;;;18.26;58.32;96501.77;108522;1270;23032;-73
2023/11/07 08:11:01;;;;;;;2.70;1.30;;;;;;;18.23;57.43;96505.55;108574;1270;22709;-73
2023/11/07 08:13:32;;;;;;;4.30;1.40;;;;;;;17.74;55.29;96511.61;108495;1268;22532;-73
2023/11/07 08:16:06;;;;;;;2.20;1.20;;;;;;;16.79;55.04;96513.70;108612;1274;22582;-73
2023/11/07 08:18:37;;;;;;;3.80;1.80;;;;;;;15.96;55.11;96525.21;108575;1274;22540;-73
2023/11/07 08:21:08;;;;;;;3.60;1.40;;;;;;;15.26;55.82;96527.09;108626;1274;25300;-73
2023/11/07 08:23:39;;;;;;;3.20;1.60;;;;;;;14.70;56.76;96524.91;108556;1269;22544;-73
2023/11/07 08:26:11;;;;;;;2.70;1.40;;;;;;;14.28;58.17;96527.43;108533;1275;22535;-73
2023/11/07 08:28:43;;;;;;;3.00;1.40;;;;;;;13.88;59.13;96521.58;108593;1275;22606;-73
2023/11/07 08:31:16;;;;;;;3.60;1.20;;;;;;;13.76;60.73;96516.98;108658;1272;22534;-73
2023/11/07 08:33:49;;;;;;;4.00;1.30;;;;;;;13.89;60.41;96508.51;108712;1275;22557;-73
2023/11/07 08:36:20;;;;;;;3.60;1.30;;;;;;;13.66;61.22;96497.93;108765;1273;22544;-73
2023/11/07 08:38:51;;;;;;;3.40;1.50;;;;;;;13.68;61.42;96499.05;108700;1275;23878;-73
2023/11/07 08:41:23;;;;;;;3.70;1.10;;;;;;;13.58;61.72;96497.45;108699;1272;22523;-73
2023/11/07 08:43:55;;;;;;;2.20;1.20;;;;;;;13.31;61.86;96501.49;108740;1267;22528;-73
2023/11/07 08:46:26;;;;;;;4.40;1.00;;;;;;;13.14;62.48;96503.00;108714;1275;22578;-73
2023/11/07 08:48:56;;;;;;;4.20;1.30;;;;;;;13.03;62.88;96507.98;108713;1275;24216;-73
2023/11/07 08:51:28;;;;;;;3.40;1.00;;;;;;;12.95;63.16;96514.31;108725;1267;24265;-73
2023/11/07 08:53:59;;;;;;;3.90;1.40;;;;;;;12.88;63.43;96518.23;108694;1275;25389;-73
2023/11/07 08:56:29;;;;;;;3.20;1.10;;;;;;;12.89;63.69;96522.84;108611;1272;22527;-73
2023/11/07 08:59:01;;;;;;;3.80;1.50;;;;;;;12.97;63.76;96521.73;108601;1275;24215;-73
2023/11/07 09:01:31;;;;;;;3.50;1.20;;;;;;;12.97;64.06;96522.85;108557;1275;22525;-73
2023/11/07 09:04:09;;;;;;;5.30;1.40;;;;;;;12.99;64.33;96513.86;108630;1275;22548;-73
2023/11/07 09:06:40;;;;;;;3.60;1.30;;;;;;;13.05;64.29;96516.92;108612;1270;24326;-73
2023/11/07 09:09:14;;;;;;;3.30;1.00;;;;;;;13.10;64.34;96518.40;108697;1275;25351;-73
2023/11/07 09:11:46;;;;;;;6.00;2.20;;;;;;;13.10;64.16;96513.46;108551;1275;22518;-73
2023/11/07 09:14:19;;;;;;;2.40;1.00;;;;;;;13.19;64.66;96514.94;108593;1267;22822;-73
2023/11/07 09:16:52;;;;;;;2.50;1.00;;;;;;;13.30;64.61;96512.28;108580;1253;22546;-73
2023/11/07 09:19:23;;;;;;;2.80;1.20;;;;;;;13.46;64.78;96510.51;108568;1275;25368;-73
2023/11/07 09:21:56;;;;;;;3.90;1.60;;;;;;;13.57;64.58;96513.46;108594;1275;22523;-73
2023/11/07 09:24:28;;;;;;;4.20;1.60;;;;;;;13.79;64.55;96519.86;108617;1268;25337;-73
2023/11/07 09:26:59;;;;;;;3.20;1.20;;;;;;;13.97;64.09;96517.59;108599;1275;23437;-73
2023/11/07 09:29:32;;;;;;;3.40;1.30;;;;;;;14.04;63.56;96516.61;108580;1275;22603;-73
2023/11/07 09:32:04;;;;;;;2.90;1.40;;;;;;;14.11;63.37;96521.91;108572;1275;25370;-73
2023/11/07 09:34:37;;;;;;;3.40;1.30;;;;;;;14.09;63.03;96520.21;108724;1275;22525;-73
2023/11/07 09:37:08;;;;;;;1.60;1.10;;;;;;;14.13;63.14;96522.77;108603;1267;22527;-73
2023/11/07 09:39:41;;;;;;;4.40;1.20;;;;;;;14.14;62.72;96523.43;108578;1275;22539;-73
2023/11/07 09:42:12;;;;;;;2.50;1.00;;;;;;;14.19;62.59;96524.57;108577;1272;25777;-73
2023/11/07 09:44:43;;;;;;;3.30;1.20;;;;;;;14.13;61.94;96524.25;108631;1275;22635;-73
2023/11/07 09:47:15;;;;;;;4.70;1.30;;;;;;;14.15;61.97;96522.29;108572;1272;25268;-73
2023/11/07 09:49:46;;;;;;;4.70;1.40;;;;;;;14.22;62.13;96521.21;108612;1253;22524;-73
2023/11/07 09:52:20;;;;;;;3.40;1.20;;;;;;;14.31;62.32;96524.69;108572;1272;23254;-73
2023/11/07 09:54:51;;;;;;;3.30;1.80;;;;;;;14.50;62.45;96524.88;108573;1269;22605;-73
2023/11/07 09:57:24;;;;;;;2.20;1.40;;;;;;;14.62;61.86;96525.76;108567;1275;22545;-73
2023/11/07 09:59:59;;;;;;;2.40;1.30;;;;;;;14.66;61.32;96522.80;108592;1275;22540;-73
2023/11/07 10:02:31;;;;;;;1.70;1.00;;;;;;;14.49;60.81;96519.20;108668;1275;27586;-73
2023/11/07 10:05:02;;;;;;;2.20;1.30;;;;;;;14.28;60.69;96520.80;108584;1275;22527;-73
2023/11/07 10:07:33;;;;;;;3.50;1.40;;;;;;;14.42;61.35;96518.09;108590;1275;22550;-73
2023/11/07 10:10:05;;;;;;;3.50;1.20;;;;;;;14.64;61.13;96517.29;108621;1275;22522;-73
2023/11/07 10:12:43;;;;;;;2.90;1.20;;;;;;;14.66;60.16;96508.73;108591;1275;22548;-73
2023/11/07 10:15:24;;;;;;;3.40;1.00;;;;;;;14.59;60.12;96518.70;108612;1275;22578;-73
2023/11/07 10:18:04;;;;;;;1.70;1.00;;;;;;;14.35;58.70;96515.38;108626;1275;22520;-73
2023/11/07 10:20:35;;;;;;;;;;;;;;;13.89;58.76;96521.77;108673;1267;22502;-73
2023/11/07 10:23:11;;;;;;;5.00;1.50;;;;;;;13.77;59.42;96518.52;108606;1275;22527;-73
2023/11/07 10:25:49;;;;;;;2.90;1.50;;;;;;;13.75;59.39;96511.48;108569;1267;22535;-73
2023/11/07 10:28:22;;;;;;;3.50;1.40;;;;;;;13.68;59.38;96510.29;108607;1275;22545;-73
2023/11/07 10:30:53;;;;;;;2.80;1.20;;;;;;;13.51;59.54;96506.45;108641;1269;22549;-73
2023/11/07 10:33:28;;;;;;;2.60;1.00;;;;;;;13.37;59.61;96507.18;108590;1275;22564;-73
2023/11/07 10:36:01;;;;;;;3.00;1.60;;;;;;;13.12;59.35;96502.80;108585;1268;26458;-73
2023/11/07 10:38:33;;;;;;;2.10;1.00;;;;;;;12.94;59.47;96505.28;108598;1267;22535;-72
2023/11/07 10:41:04;;;;;;;1.70;1.00;;;;;;;12.89;60.09;96503.77;108594;1275;22521;-73
2023/11/07 10:43:36;;;;;;;2.80;1.40;;;;;;;12.94;60.35;96501.83;108596;1275;25246;-72
2023/11/07 10:46:09;;;;;;;1.90;0.90;;;;;;;12.92;60.37;96500.05;108561;1267;22648;-73
2023/11/07 10:48:42;;;;;;;4.60;1.50;;;;;;;12.87;60.57;96499.68;108587;1269;22517;-73
2023/11/07 10:51:14;;;;;;;3.60;1.30;;;;;;;12.80;60.60;96500.70;108602;1268;25287;-72
2023/11/07 10:53:45;;;;;;;3.00;1.20;;;;;;;12.87;61.05;96498.23;108610;1275;24359;-73
2023/11/07 10:56:18;;;;;;;3.60;1.20;;;;;;;13.11;61.29;96498.25;108575;1275;22530;-73
2023/11/07 10:58:58;;;;;;;2.20;1.10;;;;;;;13.11;60.82;96496.50;108612;1269;24425;-73
2023/11/07 11:01:31;;;;;;;2.80;1.50;;;;;;;13.26;61.07;96495.48;108607;1275;23180;-73
2023/11/07 11:04:03;;;;;;;60.10;32.30;;;;;;;13.45;60.61;96490.06;108584;1275;22538;-73
2023/11/07 11:06:36;;;;;;;83.90;51.20;;;;;;;13.62;60.20;96485.48;108633;1275;22620;-73
2023/11/07 11:09:10;;;;;;;41.10;22.50;;;;;;;13.60;59.67;96488.04;108583;1275;23055;-73
2023/11/07 11:11:42;;;;;;;67.10;41.10;;;;;;;13.48;59.73;96482.66;108512;1275;22764;-73
2023/11/07 11:14:13;;;;;;;3.90;1.80;;;;;;;13.53;60.10;96481.52;108613;1269;23017;-73
2023/11/07 11:16:46;;;;;;;3.80;1.70;;;;;;;13.76;60.16;96476.11;108623;1275;22553;-73
2023/11/07 11:19:33;;;;;;;2.40;1.20;;;;;;;14.04;60.06;96480.53;108594;1275;23890;-73
2023/11/07 11:22:11;;;;;;;4.00;1.20;;;;;;;14.20;59.81;96482.77;108564;1275;23009;-73
2023/11/07 11:24:56;;;;;;;1.70;1.10;;;;;;;14.32;59.38;96476.44;108617;1274;22533;-73
2023/11/07 11:27:37;;;;;;;2.40;1.20;;;;;;;14.28;59.58;96462.52;108565;1267;24307;-73
2023/11/07 11:30:10;;;;;;;2.80;1.10;;;;;;;14.22;59.82;96470.50;108587;1275;22768;-73
2023/11/07 11:32:43;;;;;;;2.60;1.40;;;;;;;14.14;59.48;96475.10;108617;1275;22579;-73
2023/11/07 11:35:35;;;;;;;2.00;1.20;;;;;;;13.81;59.26;96473.55;108653;1275;22544;-73
2023/11/07 11:38:12;;;;;;;3.20;1.70;;;;;;;13.65;59.73;96468.75;108615;1275;23047;-73
2023/11/07 11:40:51;;;;;;;3.50;1.60;;;;;;;13.64;59.83;96465.95;108613;1272;25243;-73
2023/11/07 11:43:24;;;;;;;3.10;1.30;;;;;;;13.63;59.96;96466.23;108467;1272;170065;-73
2023/11/07 11:45:58;;;;;;;3.50;1.50;;;;;;;13.73;59.83;96465.65;108568;1261;25344;-73
2023/11/07 11:49:00;;;;;;;3.00;1.60;;;;;;;13.68;59.91;96468.85;108641;1273;22570;-73
2023/11/07 11:51:36;;;;;;;2.40;1.70;;;;;;;13.61;60.04;96467.93;108570;1253;22524;-73